createdAt,value
2018-04-06T00:02:23.392Z,84.60
2018-04-06T00:04:51.695Z,84.60
2018-04-06T00:07:19.980Z,84.50
2018-04-06T00:09:48.287Z,84.50
2018-04-06T00:12:16.603Z,84.40
2018-04-06T00:14:44.174Z,85.30
2018-04-06T00:17:12.485Z,84.40
2018-04-06T00:19:40.803Z,84.50
2018-04-06T00:22:09.092Z,84.60
2018-04-06T00:24:37.401Z,84.50
2018-04-06T00:27:05.681Z,84.60
2018-04-06T00:29:33.988Z,84.50
2018-04-06T00:32:02.276Z,84.50
2018-04-06T00:34:30.577Z,84.50
2018-04-06T00:36:58.870Z,84.80
2018-04-06T00:39:27.179Z,84.90
2018-04-06T00:41:55.533Z,85.00
2018-04-06T00:44:23.822Z,84.70
2018-04-06T00:46:52.103Z,84.90
2018-04-06T00:49:20.409Z,84.80
2018-04-06T00:51:48.705Z,85.10
2018-04-06T00:54:17.007Z,84.80
2018-04-06T00:56:45.296Z,84.80
2018-04-06T00:59:13.611Z,84.90
2018-04-06T01:01:41.905Z,85.00
2018-04-06T01:04:11.209Z,85.10
2018-04-06T01:06:39.501Z,85.10
2018-04-06T01:09:07.816Z,85.00
2018-04-06T01:11:36.118Z,85.10
2018-04-06T01:14:04.413Z,85.20
2018-04-06T01:16:32.721Z,85.10
2018-04-06T01:19:01.024Z,85.00
2018-04-06T01:21:29.336Z,84.80
2018-04-06T01:23:57.631Z,85.00
2018-04-06T01:26:25.937Z,85.10
2018-04-06T01:28:54.221Z,85.00
2018-04-06T01:31:22.531Z,84.90
2018-04-06T01:33:50.825Z,85.00
2018-04-06T01:36:19.136Z,85.10
2018-04-06T01:38:47.428Z,85.00
2018-04-06T01:41:15.732Z,85.10
2018-04-06T01:43:44.012Z,85.00
2018-04-06T01:46:12.320Z,85.00
2018-04-06T01:48:40.604Z,84.90
2018-04-06T01:51:08.924Z,85.00
2018-04-06T01:53:37.217Z,85.10
2018-04-06T01:56:05.530Z,85.10
2018-04-06T01:58:33.820Z,85.00
2018-04-06T02:01:02.128Z,85.00
2018-04-06T02:03:30.412Z,85.20
2018-04-06T02:05:58.713Z,85.20
2018-04-06T02:08:27.003Z,85.10
2018-04-06T02:10:55.312Z,85.10
2018-04-06T02:13:23.608Z,85.10
2018-04-06T02:15:51.911Z,85.00
2018-04-06T02:18:20.200Z,84.80
2018-04-06T02:20:48.510Z,84.70
2018-04-06T02:23:16.039Z,84.70
2018-04-06T02:25:44.352Z,84.70
2018-04-06T02:28:12.643Z,84.70
2018-04-06T02:30:40.948Z,84.80
2018-04-06T02:33:09.240Z,84.80
2018-04-06T02:35:37.571Z,85.00
2018-04-06T02:38:05.868Z,84.80
2018-04-06T02:40:34.181Z,84.80
2018-04-06T02:43:02.464Z,84.70
2018-04-06T02:45:30.764Z,84.50
2018-04-06T02:47:59.049Z,84.50
2018-04-06T02:50:27.353Z,84.60
2018-04-06T02:52:55.640Z,84.70
2018-04-06T02:55:23.937Z,84.60
2018-04-06T02:57:52.248Z,84.50
2018-04-06T03:00:20.556Z,84.80
2018-04-06T03:02:48.866Z,84.80
2018-04-06T03:05:17.144Z,85.00
2018-04-06T03:07:44.687Z,85.00
2018-04-06T03:10:12.968Z,85.20
2018-04-06T03:12:41.280Z,85.30
2018-04-06T03:15:09.564Z,85.20
2018-04-06T03:17:37.877Z,85.30
2018-04-06T03:20:06.163Z,85.10
2018-04-06T03:22:34.471Z,85.00
2018-04-06T03:25:02.754Z,84.90
2018-04-06T03:27:31.062Z,84.80
2018-04-06T03:29:59.347Z,85.10
2018-04-06T03:32:27.661Z,85.40
2018-04-06T03:34:55.946Z,85.50
2018-04-06T03:37:24.252Z,85.40
2018-04-06T03:39:52.548Z,85.60
2018-04-06T03:42:20.856Z,85.70
2018-04-06T03:44:49.147Z,85.70
2018-04-06T03:47:17.462Z,85.70
2018-04-06T03:49:45.752Z,85.60
2018-04-06T03:52:14.070Z,85.70
2018-04-06T03:54:42.368Z,85.90
2018-04-06T03:57:10.685Z,86.70
2018-04-06T03:59:38.972Z,86.00
2018-04-06T04:02:07.279Z,85.80
2018-04-06T04:04:35.564Z,86.00
2018-04-06T04:07:03.876Z,86.30
2018-04-06T04:09:32.172Z,86.60
2018-04-06T04:12:00.495Z,86.60
2018-04-06T04:14:28.781Z,86.40
2018-04-06T04:16:57.091Z,87.30
2018-04-06T04:19:25.407Z,86.30
2018-04-06T04:21:53.716Z,86.50
2018-04-06T04:24:22.009Z,86.50
2018-04-06T04:26:50.324Z,86.70
2018-04-06T04:29:19.591Z,86.70
2018-04-06T04:31:47.148Z,86.70
2018-04-06T04:34:15.475Z,87.00
2018-04-06T04:36:43.783Z,86.70
2018-04-06T04:39:12.072Z,86.60
2018-04-06T04:41:40.391Z,86.90
2018-04-06T04:44:08.702Z,87.00
2018-04-06T04:46:37.005Z,87.20
2018-04-06T04:49:05.324Z,87.40
2018-04-06T04:51:33.618Z,87.20
2018-04-06T04:54:01.949Z,87.10
2018-04-06T04:56:30.239Z,87.30
2018-04-06T04:58:58.552Z,87.50
2018-04-06T05:01:26.841Z,87.50
2018-04-06T05:03:55.162Z,87.70
2018-04-06T05:06:23.448Z,87.80
2018-04-06T05:08:51.760Z,87.80
2018-04-06T05:11:20.056Z,87.90
2018-04-06T05:13:48.367Z,87.90
2018-04-06T05:16:16.652Z,88.00
2018-04-06T05:18:44.964Z,88.10
2018-04-06T05:21:13.260Z,88.20
2018-04-06T05:23:41.581Z,88.30
2018-04-06T05:26:09.895Z,88.30
2018-04-06T05:28:38.212Z,88.50
2018-04-06T05:31:06.508Z,88.40
2018-04-06T05:33:34.830Z,88.30
2018-04-06T05:36:03.131Z,88.10
2018-04-06T05:38:31.442Z,87.90
2018-04-06T05:40:59.737Z,87.80
2018-04-06T05:43:28.055Z,87.60
2018-04-06T05:45:56.357Z,87.60
2018-04-06T05:48:24.693Z,87.50
2018-04-06T05:50:52.993Z,87.60
2018-04-06T05:53:21.308Z,87.50
2018-04-06T05:55:49.601Z,87.30
2018-04-06T05:58:17.963Z,86.90
2018-04-06T06:00:46.225Z,86.60
2018-04-06T06:03:14.547Z,86.30
2018-04-06T06:05:42.074Z,86.30
2018-04-06T06:08:10.389Z,85.70
2018-04-06T06:10:38.672Z,85.30
2018-04-06T06:13:06.985Z,85.00
2018-04-06T06:15:35.284Z,84.70
2018-04-06T06:18:03.600Z,84.30
2018-04-06T06:20:31.889Z,83.80
2018-04-06T06:23:00.179Z,83.30
2018-04-06T06:25:28.500Z,83.00
2018-04-06T06:27:56.793Z,82.60
2018-04-06T06:30:25.109Z,82.10
2018-04-06T06:32:53.400Z,81.80
2018-04-06T06:35:21.749Z,81.50
2018-04-06T06:37:49.741Z,81.40
2018-04-06T06:40:18.056Z,81.00
2018-04-06T06:42:46.361Z,80.70
2018-04-06T06:45:14.672Z,80.60
2018-04-06T06:47:42.964Z,80.40
2018-04-06T06:50:11.276Z,80.10
2018-04-06T06:52:39.568Z,79.90
2018-04-06T06:55:07.885Z,80.00
2018-04-06T06:57:36.184Z,79.60
2018-04-06T07:00:04.505Z,77.60
2018-04-06T07:02:32.787Z,74.90
2018-04-06T07:05:01.105Z,74.20
2018-04-06T07:07:29.393Z,72.70
2018-04-06T07:09:57.711Z,72.40
2018-04-06T07:12:26.008Z,70.80
2018-04-06T07:14:54.320Z,69.00
2018-04-06T07:17:22.611Z,68.60
2018-04-06T07:19:50.924Z,67.60
2018-04-06T07:22:18.452Z,67.60
2018-04-06T07:24:46.761Z,65.20
2018-04-06T07:27:15.060Z,65.70
2018-04-06T07:29:43.389Z,63.40
2018-04-06T07:32:11.684Z,63.90
2018-04-06T07:34:39.992Z,63.30
2018-04-06T07:37:08.277Z,62.90
2018-04-06T07:39:36.600Z,62.00
2018-04-06T07:42:04.913Z,61.00
2018-04-06T07:44:33.241Z,59.80
2018-04-06T07:47:01.540Z,58.60
2018-04-06T07:49:29.857Z,57.10
2018-04-06T07:51:58.176Z,56.70
2018-04-06T07:54:26.495Z,56.20
2018-04-06T07:56:54.788Z,55.20
2018-04-06T07:59:23.120Z,54.50
2018-04-06T08:01:51.407Z,53.50
2018-04-06T08:04:19.731Z,53.40
2018-04-06T08:06:48.024Z,53.20
2018-04-06T08:09:16.604Z,52.60
2018-04-06T08:11:44.921Z,52.50
2018-04-06T08:14:13.226Z,51.90
2018-04-06T08:16:41.552Z,51.80
2018-04-06T08:19:09.843Z,51.50
2018-04-06T08:21:38.160Z,51.90
2018-04-06T08:24:06.452Z,51.90
2018-04-06T08:26:34.781Z,50.90
2018-04-06T08:29:03.080Z,49.90
2018-04-06T08:31:31.400Z,49.40
2018-04-06T08:33:59.701Z,49.80
2018-04-06T08:36:28.008Z,50.00
2018-04-06T08:38:56.305Z,50.70
2018-04-06T08:41:24.619Z,50.50
2018-04-06T08:43:52.917Z,49.90
2018-04-06T08:46:21.240Z,49.70
2018-04-06T08:48:49.539Z,49.70
2018-04-06T08:51:17.851Z,49.40
2018-04-06T08:53:46.140Z,49.30
2018-04-06T08:56:14.460Z,48.70
2018-04-06T08:58:41.979Z,48.70
2018-04-06T09:01:10.284Z,47.70
2018-04-06T09:03:38.580Z,48.00
2018-04-06T09:06:06.160Z,47.90
2018-04-06T09:08:34.457Z,46.50
2018-04-06T09:11:02.776Z,46.40
2018-04-06T09:13:31.076Z,45.60
2018-04-06T09:15:59.461Z,45.60
2018-04-06T09:18:27.744Z,45.30
2018-04-06T09:20:56.117Z,46.00
2018-04-06T09:23:24.419Z,45.50
2018-04-06T09:25:52.740Z,44.50
2018-04-06T09:28:21.064Z,44.50
2018-04-06T09:30:49.397Z,44.00
2018-04-06T09:33:17.764Z,43.60
2018-04-06T09:35:46.072Z,42.30
2018-04-06T09:38:14.380Z,41.50
2018-04-06T09:40:42.705Z,41.20
2018-04-06T09:43:11.016Z,41.20
2018-04-06T09:45:38.569Z,41.10
2018-04-06T09:48:06.869Z,41.50
2018-04-06T09:50:35.188Z,40.80
2018-04-06T09:53:03.497Z,39.90
2018-04-06T09:55:31.800Z,40.20
2018-04-06T09:58:00.108Z,39.70
2018-04-06T10:00:32.428Z,38.70
2018-04-06T10:03:02.678Z,39.00
2018-04-06T10:05:30.968Z,39.70
2018-04-06T10:07:59.301Z,39.80
2018-04-06T10:10:27.610Z,39.70
2018-04-06T10:12:55.169Z,39.70
2018-04-06T10:15:23.472Z,38.90
2018-04-06T10:17:52.836Z,38.90
2018-04-06T10:20:21.143Z,37.60
2018-04-06T10:22:49.502Z,37.60
2018-04-06T10:25:17.008Z,37.60
2018-04-06T10:27:44.553Z,38.40
2018-04-06T10:30:12.840Z,39.10
2018-04-06T10:32:41.149Z,38.80
2018-04-06T10:35:09.533Z,39.30
2018-04-06T10:37:37.791Z,39.50
2018-04-06T10:40:06.088Z,39.70
2018-04-06T10:42:34.416Z,39.30
2018-04-06T10:45:02.709Z,37.40
2018-04-06T10:47:31.017Z,37.40
2018-04-06T10:49:59.308Z,37.20
2018-04-06T10:52:26.857Z,37.20
2018-04-06T10:54:55.148Z,35.90
2018-04-06T10:57:23.468Z,37.00
2018-04-06T10:59:51.755Z,35.70
2018-04-06T11:02:20.073Z,35.50
2018-04-06T11:04:48.360Z,35.80
2018-04-06T11:07:16.677Z,34.80
2018-04-06T11:09:44.971Z,34.50
2018-04-06T11:12:13.324Z,34.60
2018-04-06T11:14:41.618Z,34.80
2018-04-06T11:17:09.945Z,35.40
2018-04-06T11:19:38.244Z,35.20
2018-04-06T11:22:06.561Z,32.60
2018-04-06T11:24:34.857Z,33.30
2018-04-06T11:27:03.169Z,33.40
2018-04-06T11:29:31.459Z,33.80
2018-04-06T11:31:59.755Z,31.90
2018-04-06T11:34:28.076Z,31.30
2018-04-06T11:36:55.596Z,31.30
2018-04-06T11:39:23.908Z,29.90
2018-04-06T11:41:52.195Z,30.60
2018-04-06T11:44:19.750Z,30.20
2018-04-06T11:46:48.039Z,31.50
2018-04-06T11:49:16.351Z,31.80
2018-04-06T11:51:44.639Z,31.80
2018-04-06T11:54:13.002Z,30.80
2018-04-06T11:56:41.296Z,30.80
2018-04-06T11:59:09.608Z,31.00
2018-04-06T12:01:37.897Z,30.60
2018-04-06T12:04:06.215Z,30.70
2018-04-06T12:06:34.504Z,32.30
2018-04-06T12:09:02.813Z,32.00
2018-04-06T12:11:31.099Z,30.10
2018-04-06T12:13:59.413Z,29.70
2018-04-06T12:16:27.705Z,30.70
2018-04-06T12:18:55.249Z,30.70
2018-04-06T12:21:23.537Z,30.20
2018-04-06T12:23:51.852Z,30.30
2018-04-06T12:26:20.145Z,30.50
2018-04-06T12:28:48.466Z,31.10
2018-04-06T12:31:16.757Z,30.40
2018-04-06T12:33:45.064Z,30.10
2018-04-06T12:36:13.348Z,30.50
2018-04-06T12:38:41.665Z,29.80
2018-04-06T12:41:09.954Z,30.00
2018-04-06T12:43:38.264Z,31.20
2018-04-06T12:46:06.552Z,31.30
2018-04-06T12:48:34.860Z,31.70
2018-04-06T12:51:03.152Z,31.90
2018-04-06T12:53:31.477Z,30.40
2018-04-06T12:55:59.772Z,30.60
2018-04-06T12:58:28.083Z,31.10
2018-04-06T13:00:56.376Z,29.60
2018-04-06T13:03:24.697Z,29.30
2018-04-06T13:05:52.984Z,29.60
2018-04-06T13:08:21.303Z,30.50
2018-04-06T13:10:49.604Z,31.00
2018-04-06T13:13:17.896Z,30.90
2018-04-06T13:15:46.205Z,30.90
2018-04-06T13:18:14.496Z,30.90
2018-04-06T13:20:42.825Z,30.80
2018-04-06T13:23:11.924Z,31.50
2018-04-06T13:25:40.574Z,32.40
2018-04-06T13:28:08.860Z,32.30
2018-04-06T13:30:37.172Z,32.10
2018-04-06T13:33:05.468Z,31.00
2018-04-06T13:35:33.780Z,30.40
2018-04-06T13:38:02.067Z,29.80
2018-04-06T13:40:30.405Z,29.40
2018-04-06T13:42:58.692Z,30.00
2018-04-06T13:45:26.241Z,30.00
2018-04-06T13:47:54.534Z,30.60
2018-04-06T13:50:22.836Z,29.90
2018-04-06T13:52:51.130Z,29.90
2018-04-06T13:55:19.448Z,29.80
2018-04-06T13:57:47.736Z,29.50
2018-04-06T14:00:16.044Z,29.20
2018-04-06T14:02:44.333Z,28.90
2018-04-06T14:05:12.641Z,28.80
2018-04-06T14:07:40.926Z,28.60
2018-04-06T14:10:09.236Z,29.20
2018-04-06T14:12:37.520Z,29.00
2018-04-06T14:15:05.830Z,29.20
2018-04-06T14:17:34.117Z,28.70
2018-04-06T14:20:02.425Z,29.00
2018-04-06T14:22:30.708Z,29.00
2018-04-06T14:24:59.007Z,29.40
2018-04-06T14:27:27.300Z,29.50
2018-04-06T14:29:55.612Z,29.40
2018-04-06T14:32:23.898Z,29.00
2018-04-06T14:34:52.213Z,29.00
2018-04-06T14:37:20.503Z,29.20
2018-04-06T14:39:48.815Z,29.00
2018-04-06T14:42:17.104Z,28.90
2018-04-06T14:44:45.420Z,29.40
2018-04-06T14:47:13.716Z,29.40
2018-04-06T14:49:42.020Z,29.20
2018-04-06T14:52:10.312Z,29.00
2018-04-06T14:54:38.625Z,29.00
2018-04-06T14:57:06.140Z,28.90
2018-04-06T14:59:34.424Z,28.10
2018-04-06T15:02:01.968Z,28.10
2018-04-06T15:04:30.293Z,27.50
2018-04-06T15:06:58.603Z,28.60
2018-04-06T15:09:26.892Z,28.90
2018-04-06T15:11:55.240Z,28.20
2018-04-06T15:14:23.524Z,28.30
2018-04-06T15:16:51.863Z,29.10
2018-04-06T15:19:20.163Z,29.30
2018-04-06T15:21:48.476Z,29.40
2018-04-06T15:24:16.763Z,29.80
2018-04-06T15:26:45.072Z,30.20
2018-04-06T15:29:13.356Z,30.20
2018-04-06T15:31:41.673Z,30.60
2018-04-06T15:34:09.955Z,31.00
2018-04-06T15:36:38.261Z,30.60
2018-04-06T15:39:06.568Z,31.10
2018-04-06T15:41:34.889Z,31.00
2018-04-06T15:44:03.176Z,30.00
2018-04-06T15:46:31.488Z,29.70
2018-04-06T15:48:59.780Z,29.50
2018-04-06T15:51:28.089Z,29.90
2018-04-06T15:53:56.385Z,30.00
2018-04-06T15:56:24.714Z,29.40
2018-04-06T15:58:53.001Z,29.30
2018-04-06T16:01:21.329Z,29.60
2018-04-06T16:03:49.627Z,29.40
2018-04-06T16:06:17.943Z,29.60
2018-04-06T16:08:46.252Z,29.80
2018-04-06T16:11:14.573Z,29.50
2018-04-06T16:13:42.915Z,29.30
2018-04-06T16:16:11.205Z,29.30
2018-04-06T16:18:39.504Z,29.40
2018-04-06T16:21:07.817Z,29.60
2018-04-06T16:23:36.120Z,30.00
2018-04-06T16:26:04.436Z,30.00
2018-04-06T16:28:32.726Z,29.60
2018-04-06T16:31:01.055Z,29.70
2018-04-06T16:33:29.348Z,30.00
2018-04-06T16:35:57.672Z,30.10
2018-04-06T16:38:25.212Z,30.10
2018-04-06T16:40:53.544Z,30.30
2018-04-06T16:43:21.871Z,30.70
2018-04-06T16:45:50.176Z,31.10
2018-04-06T16:48:17.730Z,31.70
2018-04-06T16:50:46.027Z,31.80
2018-04-06T16:53:14.356Z,32.00
2018-04-06T16:55:42.651Z,32.90
2018-04-06T16:58:10.964Z,32.70
2018-04-06T17:00:39.258Z,32.70
2018-04-06T17:03:07.580Z,33.00
2018-04-06T17:05:35.885Z,33.20
2018-04-06T17:08:04.208Z,33.60
2018-04-06T17:10:32.505Z,34.00
2018-04-06T17:13:00.817Z,33.50
2018-04-06T17:15:29.121Z,33.80
2018-04-06T17:17:57.447Z,33.80
2018-04-06T17:20:25.739Z,34.00
2018-04-06T17:22:54.057Z,34.20
2018-04-06T17:25:22.365Z,34.50
2018-04-06T17:27:50.681Z,35.00
2018-04-06T17:30:18.972Z,35.40
2018-04-06T17:32:47.280Z,35.70
2018-04-06T17:35:15.564Z,35.80
2018-04-06T17:37:43.872Z,36.10
2018-04-06T17:40:12.213Z,36.30
2018-04-06T17:42:40.552Z,36.60
2018-04-06T17:45:08.955Z,36.90
2018-04-06T17:47:37.454Z,37.10
2018-04-06T17:50:05.827Z,37.60
2018-04-06T17:52:34.137Z,38.00
2018-04-06T17:55:02.432Z,38.40
2018-04-06T17:57:30.744Z,38.70
2018-04-06T17:59:59.038Z,38.80
2018-04-06T18:02:27.353Z,39.00
2018-04-06T18:04:54.876Z,39.00
2018-04-06T18:07:23.201Z,40.20
2018-04-06T18:09:51.488Z,39.50
2018-04-06T18:12:19.799Z,39.60
2018-04-06T18:14:48.088Z,39.80
2018-04-06T18:17:16.517Z,40.20
2018-04-06T18:19:44.983Z,40.40
2018-04-06T18:22:13.320Z,40.60
2018-04-06T18:24:41.608Z,40.70
2018-04-06T18:27:09.906Z,40.80
2018-04-06T18:29:38.220Z,41.30
2018-04-06T18:32:06.571Z,41.40
2018-04-06T18:34:34.916Z,41.90
2018-04-06T18:37:03.216Z,43.10
2018-04-06T18:39:31.532Z,44.00
2018-04-06T18:41:59.968Z,43.60
2018-04-06T18:44:27.600Z,43.50
2018-04-06T18:46:55.896Z,43.00
2018-04-06T18:49:24.208Z,42.90
2018-04-06T18:51:52.536Z,43.40
2018-04-06T18:54:20.862Z,43.30
2018-04-06T18:56:49.207Z,43.30
2018-04-06T18:59:17.513Z,43.20
2018-04-06T19:01:45.844Z,43.00
2018-04-06T19:04:14.155Z,42.90
2018-04-06T19:06:42.483Z,42.60
2018-04-06T19:09:10.869Z,42.50
2018-04-06T19:11:39.172Z,42.50
2018-04-06T19:14:07.524Z,42.60
2018-04-06T19:16:35.808Z,42.70
2018-04-06T19:19:04.134Z,42.60
2018-04-06T19:21:32.424Z,42.80
2018-04-06T19:24:00.740Z,43.00
2018-04-06T19:26:28.269Z,42.90
2018-04-06T19:28:55.860Z,43.20
2018-04-06T19:31:24.144Z,43.30
2018-04-06T19:33:52.540Z,43.40
2018-04-06T19:38:56.814Z,43.90
2018-04-06T19:41:25.140Z,44.20
2018-04-06T19:43:53.544Z,45.00
2018-04-06T19:46:21.830Z,44.40
2018-04-06T19:48:50.198Z,44.50
2018-04-06T19:51:18.507Z,44.50
2018-04-06T19:53:46.951Z,44.50
2018-04-06T19:56:15.284Z,44.70
2018-04-06T19:58:43.622Z,44.90
2018-04-06T20:01:11.943Z,44.90
2018-04-06T20:03:40.286Z,45.00
2018-04-06T20:06:08.598Z,45.40
2018-04-06T20:08:36.946Z,45.40
2018-04-06T20:11:05.275Z,45.40
2018-04-06T20:13:33.621Z,45.50
2018-04-06T20:16:01.933Z,45.50
2018-04-06T20:18:30.258Z,45.80
2018-04-06T20:20:58.604Z,46.00
2018-04-06T20:23:26.928Z,46.30
2018-04-06T20:25:55.268Z,47.50
2018-04-06T20:28:23.583Z,47.70
2018-04-06T20:30:51.960Z,48.00
2018-04-06T20:33:20.266Z,48.00
2018-04-06T20:35:49.228Z,47.80
2018-04-06T20:38:17.543Z,47.90
2018-04-06T20:40:45.883Z,47.70
2018-04-06T20:43:14.205Z,47.60
2018-04-06T20:45:42.557Z,46.80
2018-04-06T20:48:10.879Z,46.60
2018-04-06T20:50:39.221Z,46.70
2018-04-06T20:53:07.542Z,46.70
2018-04-06T20:55:35.894Z,46.80
2018-04-06T20:58:04.206Z,47.00
2018-04-06T21:00:32.546Z,47.90
2018-04-06T21:03:00.872Z,48.10
2018-04-06T21:05:29.199Z,48.30
2018-04-06T21:07:57.511Z,48.30
2018-04-06T21:10:25.857Z,48.50
2018-04-06T21:12:54.164Z,48.60
2018-04-06T21:15:22.515Z,48.90
2018-04-06T21:17:50.852Z,48.90
2018-04-06T21:20:19.188Z,49.10
2018-04-06T21:22:47.499Z,49.20
2018-04-06T21:25:15.836Z,49.40
2018-04-06T21:27:44.157Z,49.60
2018-04-06T21:30:12.499Z,49.90
2018-04-06T21:32:40.812Z,50.30
2018-04-06T21:35:09.155Z,50.70
2018-04-06T21:37:37.475Z,51.30
2018-04-06T21:40:05.806Z,51.70
2018-04-06T21:42:34.127Z,52.10
2018-04-06T21:45:02.453Z,52.50
2018-04-06T21:47:30.757Z,52.80
2018-04-06T21:49:59.092Z,53.00
2018-04-06T21:52:27.399Z,53.20
2018-04-06T21:54:55.735Z,53.40
2018-04-06T21:57:24.051Z,53.50
2018-04-06T21:59:52.396Z,53.70
2018-04-06T22:02:20.712Z,53.50
2018-04-06T22:04:49.026Z,53.00
2018-04-06T22:07:17.368Z,52.90
2018-04-06T22:09:45.681Z,53.00
2018-04-06T22:12:14.028Z,53.50
2018-04-06T22:14:42.336Z,53.60
2018-04-06T22:17:10.684Z,53.60
2018-04-06T22:19:38.999Z,53.80
2018-04-06T22:22:07.343Z,53.60
2018-04-06T22:24:35.670Z,53.50
2018-04-06T22:27:04.009Z,53.30
2018-04-06T22:29:32.328Z,52.70
2018-04-06T22:32:00.663Z,52.40
2018-04-06T22:34:29.023Z,52.20
2018-04-06T22:36:57.363Z,51.50
2018-04-06T22:39:25.676Z,51.30
2018-04-06T22:41:54.006Z,51.10
2018-04-06T22:44:22.360Z,50.90
2018-04-06T22:46:50.705Z,50.80
2018-04-06T22:49:19.015Z,51.30
2018-04-06T22:51:47.348Z,50.80
2018-04-06T22:54:15.667Z,51.00
2018-04-06T22:56:44.005Z,51.00
2018-04-06T22:59:12.320Z,51.10
2018-04-06T23:01:40.651Z,51.10
2018-04-06T23:04:08.970Z,51.30
2018-04-06T23:06:37.307Z,51.10
2018-04-06T23:09:05.624Z,51.00
2018-04-06T23:11:33.960Z,51.10
2018-04-06T23:14:02.268Z,51.30
2018-04-06T23:16:30.593Z,51.00
2018-04-06T23:18:58.912Z,51.20
2018-04-06T23:21:27.250Z,51.30
2018-04-06T23:23:55.574Z,51.30
2018-04-06T23:26:23.907Z,51.10
2018-04-06T23:28:52.222Z,51.10
2018-04-06T23:31:20.558Z,51.10
2018-04-06T23:33:48.899Z,51.00
2018-04-06T23:36:17.242Z,51.00
2018-04-06T23:38:45.558Z,51.20
2018-04-06T23:41:13.916Z,51.30
2018-04-06T23:43:42.245Z,51.20
2018-04-06T23:46:10.601Z,51.50
2018-04-06T23:48:38.929Z,51.80
2018-04-06T23:51:07.249Z,52.10
2018-04-06T23:53:35.588Z,52.20
2018-04-06T23:56:03.904Z,52.20
2018-04-06T23:58:32.247Z,52.20
